Forside
METAR-TAF:

METAR-TAF

Lufthavne :

Washington Municipal Airport

Washington, Iowa, USA

Breddekreds: 41-17N, længdekreds: 091-40W, højde: 230 m

Aktuelle vejr

Denne rapport blev lavet for 11 minutter siden, kl. 12:15 UTC
Vind 18 kt fra sydøst
Temperatur 3°C
Fugtighed 100%
Tryk 1017 hPa
Sigt: 2.4 km
Brudte skyer i en højde af 600 ft
Brudte skyer i en højde af 900 ft
Overskyet i en højde af 2100 ft
dis

METAR: KAWG 241215Z AUTO 13018KT 1 1/2SM BR BKN006 BKN009 OVC021 03/03 A3004 RMK AO2

Tid: 06:26 (12:26 UTC)


TAF: fraværende

Vejrobservationer og prognoser fra mere end 4000 lufthavne (METAR og TAF).

De gule og røde prikker repræsenterer de meteorologiske stationer.

Flyt musen over at se navnet på stationen.

Så klik over at se vejr observationer og prognoser.

At skifte det kort: Klik på de grønne knapper med et sort kors for at zoome ind; på den grønne knap med en bindestreg for at zoome ud; eller på de grønne pile for tilstødende kort.


METAR-TAF: